Time;durP1;ratioP1;P1;durP2;ratioP2;P2;SDS_P1;SDS_P2;PMS_P1;PMS_P2;Temp;Humidity;BMP_temperature;BMP_pressure;BME280_temperature;BME280_humidity;BME280_pressure;Samples;Min_cycle;Max_cycle;Signal;HPM_P1;HPM_P2
2022/01/19 00:00:21;;;;;;;43.60;19.90;;;;;;;-1.42;72.46;100526.73;106200;1274;97811;-74
2022/01/19 00:03:09;;;;;;;44.50;18.70;;;;;;;-1.41;72.45;100522.72;106157;1274;110082;-75
2022/01/19 00:05:39;;;;;;;45.90;19.50;;;;;;;-1.43;72.40;100515.59;106162;1274;97328;-73
2022/01/19 00:08:07;;;;;;;40.80;19.30;;;;;;;-1.43;72.39;100515.42;106276;1273;99371;-75
2022/01/19 00:10:35;;;;;;;39.60;18.00;;;;;;;-1.43;72.29;100503.58;106114;1273;113218;-75
2022/01/19 00:13:03;;;;;;;46.20;19.20;;;;;;;-1.43;72.45;100495.05;106101;1274;99321;-75
2022/01/19 00:15:31;;;;;;;40.80;17.50;;;;;;;-1.44;72.21;100487.59;106031;1274;107751;-74
2022/01/19 00:18:00;;;;;;;38.90;17.80;;;;;;;-1.46;72.31;100490.36;106069;1273;99213;-70
2022/01/19 00:20:32;;;;;;;41.20;17.60;;;;;;;-1.47;72.39;100494.19;106109;1274;99301;-71
2022/01/19 00:23:02;;;;;;;38.90;16.50;;;;;;;-1.48;72.23;100501.84;106034;1274;112692;-73
2022/01/19 00:25:32;;;;;;;41.80;16.70;;;;;;;-1.48;72.23;100504.63;106105;1274;99310;-68
2022/01/19 00:28:00;;;;;;;35.20;15.10;;;;;;;-1.47;72.58;100512.12;106072;1273;108337;-72
2022/01/19 00:30:28;;;;;;;36.60;14.10;;;;;;;-1.45;72.58;100515.08;105957;1274;97795;-73
2022/01/19 00:32:57;;;;;;;34.70;14.50;;;;;;;-1.43;72.38;100521.70;106031;1273;99457;-73
2022/01/19 00:35:25;;;;;;;41.00;16.40;;;;;;;-1.41;72.31;100517.32;106069;1274;112748;-70
2022/01/19 00:37:53;;;;;;;35.00;14.50;;;;;;;-1.39;72.46;100516.27;105989;1274;99126;-71
2022/01/19 00:40:21;;;;;;;34.80;15.20;;;;;;;-1.36;72.27;100520.98;106081;1274;106364;-70
2022/01/19 00:42:49;;;;;;;34.70;14.90;;;;;;;-1.36;72.08;100534.91;106036;1272;96737;-71
2022/01/19 00:45:18;;;;;;;38.10;16.00;;;;;;;-1.33;72.45;100541.70;105951;1274;99241;-71
2022/01/19 00:47:46;;;;;;;39.00;16.00;;;;;;;-1.32;72.47;100541.17;106079;1274;112763;-71
2022/01/19 00:50:19;;;;;;;35.20;15.50;;;;;;;-1.30;72.43;100541.52;106185;1272;99217;-71
2022/01/19 00:52:49;;;;;;;30.60;14.20;;;;;;;-1.27;72.43;100535.09;106182;1274;107635;-71
2022/01/19 00:55:20;;;;;;;34.90;15.30;;;;;;;-1.25;72.10;100538.04;106207;1273;99294;-71
2022/01/19 00:57:49;;;;;;;33.80;14.70;;;;;;;-1.25;72.21;100532.13;106176;1274;99210;-70
2022/01/19 01:00:21;;;;;;;34.90;15.20;;;;;;;-1.25;72.33;100526.90;106126;1273;112761;-73
2022/01/19 01:02:49;;;;;;;38.00;16.20;;;;;;;-1.26;72.49;100530.02;106147;1274;99324;-71
2022/01/19 01:05:18;;;;;;;38.90;16.70;;;;;;;-1.25;72.31;100531.42;106081;1273;107724;-72
2022/01/19 01:07:46;;;;;;;37.00;16.20;;;;;;;-1.22;72.19;100530.55;106164;1274;99216;-71
2022/01/19 01:10:17;;;;;;;36.60;15.30;;;;;;;-1.20;72.21;100532.27;106145;1274;99211;-73
2022/01/19 01:12:50;;;;;;;33.90;14.50;;;;;;;-1.18;72.25;100537.84;106106;1272;112776;-73
2022/01/19 01:15:36;;;;;;;37.80;16.50;;;;;;;-1.17;72.31;100530.54;106087;1274;99262;-72
2022/01/19 01:20:36;;;;;;;33.40;14.60;;;;;;;-1.14;72.30;100497.98;106134;1273;99222;-72
2022/01/19 01:23:06;;;;;;;34.30;13.70;;;;;;;-1.15;72.28;100483.02;106028;1274;97188;-73
2022/01/19 01:25:35;;;;;;;34.20;14.10;;;;;;;-1.16;72.37;100473.27;106222;1273;114044;-73
2022/01/19 01:28:05;;;;;;;32.80;12.10;;;;;;;-1.20;72.10;100472.73;106252;1273;99248;-73
2022/01/19 01:30:36;;;;;;;35.10;12.90;;;;;;;-1.18;72.23;100470.48;106236;1274;109765;-72
2022/01/19 01:33:04;;;;;;;31.60;12.40;;;;;;;-1.16;72.32;100466.99;106213;1274;99249;-72
2022/01/19 01:35:34;;;;;;;30.40;11.20;;;;;;;-1.16;72.26;100456.73;106256;1274;99992;-72
2022/01/19 01:38:04;;;;;;;35.30;12.50;;;;;;;-1.16;72.11;100448.55;106196;1274;112075;-72
2022/01/19 01:40:34;;;;;;;33.90;12.80;;;;;;;-1.15;72.21;100449.59;106128;1274;96993;-73
2022/01/19 01:43:05;;;;;;;30.70;11.90;;;;;;;-1.16;72.17;100443.84;106127;1274;106241;-72
2022/01/19 01:45:38;;;;;;;31.10;12.30;;;;;;;-1.17;72.26;100442.11;106167;1274;99239;-73
2022/01/19 01:48:15;;;;;;;28.50;10.00;;;;;;;-1.16;72.13;100435.48;106212;1274;98324;-73
2022/01/19 01:53:34;;;;;;;30.70;12.20;;;;;;;-1.15;72.18;100427.66;106113;1274;97297;-72
2022/01/19 01:56:10;;;;;;;26.90;11.30;;;;;;;-1.14;72.13;100425.73;106202;1274;108332;-72
2022/01/19 01:58:41;;;;;;;32.80;13.60;;;;;;;-1.16;72.12;100434.96;106158;1274;97289;-73
2022/01/19 02:01:10;;;;;;;36.70;14.70;;;;;;;-1.21;72.09;100429.05;106226;1274;99220;-72
2022/01/19 02:03:41;;;;;;;30.20;12.60;;;;;;;-1.21;72.09;100424.70;106179;1274;112729;-72
2022/01/19 02:09:12;;;;;;;34.70;13.30;;;;;;;-1.25;72.25;100426.46;106031;1273;107785;-73
2022/01/19 02:23:02;;;;;;;38.10;14.70;;;;;;;-1.24;72.19;100443.86;106170;1273;107739;-71
2022/01/19 02:25:36;;;;;;;37.80;15.40;;;;;;;-1.22;72.28;100435.67;106196;1274;99202;-72
2022/01/19 02:41:47;;;;;;;33.80;15.00;;;;;;;-1.25;72.15;100428.20;106257;1272;97709;-72
2022/01/19 02:44:29;;;;;;;41.30;16.80;;;;;;;-1.24;72.05;100424.38;106221;1274;112733;-74
2022/01/19 02:49:47;;;;;;;45.90;19.60;;;;;;;-1.28;72.25;100418.64;106111;1274;107737;-74
2022/01/19 02:52:18;;;;;;;39.90;16.20;;;;;;;-1.28;72.28;100412.38;106133;1274;99226;-70
2022/01/19 02:54:47;;;;;;;43.10;17.20;;;;;;;-1.30;72.18;100407.67;106161;1274;99294;-72
2022/01/19 02:57:16;;;;;;;37.10;15.40;;;;;;;-1.30;72.23;100403.85;106226;1273;111741;-73
2022/01/19 03:10:17;;;;;;;33.30;14.10;;;;;;;-1.40;72.16;100366.80;106164;1274;112764;-71
2022/01/19 03:12:45;;;;;;;31.80;13.70;;;;;;;-1.42;72.15;100367.16;106255;1274;99359;-70
2022/01/19 03:15:14;;;;;;;34.30;14.50;;;;;;;-1.42;72.13;100361.92;106166;1274;107785;-72
2022/01/19 03:17:42;;;;;;;36.20;14.20;;;;;;;-1.40;72.17;100357.92;106144;1274;99240;-73
2022/01/19 03:20:11;;;;;;;34.60;12.80;;;;;;;-1.38;72.33;100351.66;106183;1274;96610;-71
2022/01/19 03:22:46;;;;;;;33.10;12.30;;;;;;;-1.40;71.87;100348.88;106086;1273;113562;-71
2022/01/19 03:25:15;;;;;;;33.40;13.40;;;;;;;-1.38;72.10;100346.09;106140;1273;99219;-71
2022/01/19 03:27:46;;;;;;;28.50;11.00;;;;;;;-1.37;72.09;100343.47;106226;1274;107388;-71
2022/01/19 03:30:17;;;;;;;32.00;11.40;;;;;;;-1.34;72.25;100335.29;106013;1274;141221;-71
2022/01/19 03:32:46;;;;;;;36.90;12.70;;;;;;;-1.34;72.21;100336.34;106211;1273;99799;-71
2022/01/19 03:35:14;;;;;;;35.80;12.80;;;;;;;-1.35;71.98;100338.08;106201;1273;112774;-72
2022/01/19 03:37:43;;;;;;;36.20;12.00;;;;;;;-1.34;72.21;100339.30;106231;1273;99297;-70
2022/01/19 03:40:12;;;;;;;37.70;12.80;;;;;;;-1.30;72.20;100341.89;106140;1274;107754;-71
2022/01/19 03:42:40;;;;;;;32.60;11.80;;;;;;;-1.27;72.17;100340.14;106204;1274;99356;-69
2022/01/19 03:45:10;;;;;;;33.30;12.40;;;;;;;-1.27;72.20;100340.48;106204;1273;99196;-71
2022/01/19 03:47:44;;;;;;;36.40;13.50;;;;;;;-1.27;72.29;100336.30;106268;1274;112740;-73
2022/01/19 03:50:13;;;;;;;36.50;12.80;;;;;;;-1.26;72.06;100334.22;106229;1274;99268;-73
2022/01/19 03:52:42;;;;;;;30.20;11.10;;;;;;;-1.26;72.00;100330.91;106127;1274;107822;-74
2022/01/19 03:55:11;;;;;;;29.90;10.80;;;;;;;-1.24;72.21;100326.04;106175;1274;99846;-73
2022/01/19 03:57:39;;;;;;;31.50;11.50;;;;;;;-1.23;72.01;100313.32;106213;1272;99326;-74
2022/01/19 04:00:09;;;;;;;35.20;13.10;;;;;;;-1.21;72.06;100309.47;106274;1274;112733;-73
2022/01/19 04:02:37;;;;;;;36.00;11.60;;;;;;;-1.17;72.40;100308.94;106161;1274;99191;-72
2022/01/19 04:05:15;;;;;;;34.40;11.90;;;;;;;-1.14;72.03;100303.70;106225;1274;107214;-73
2022/01/19 04:07:43;;;;;;;32.60;11.20;;;;;;;-1.12;71.89;100296.55;106221;1274;98722;-74
2022/01/19 04:10:12;;;;;;;34.20;11.20;;;;;;;-1.12;71.94;100288.90;106257;1274;99110;-73
2022/01/19 04:12:46;;;;;;;30.40;10.40;;;;;;;-1.10;72.09;100288.02;106229;1274;112389;-74
2022/01/19 04:15:16;;;;;;;29.90;11.80;;;;;;;-1.10;72.21;100284.53;106107;1274;99321;-73
2022/01/19 04:17:53;;;;;;;29.50;9.50;;;;;;;-1.09;72.11;100284.88;106186;1274;107805;-74
2022/01/19 04:20:25;;;;;;;33.60;11.00;;;;;;;-1.08;72.32;100286.79;106163;1272;99366;-71
2022/01/19 04:22:55;;;;;;;;;;;;;;;-1.06;72.31;100287.65;106152;1274;96612;-72
2022/01/19 04:25:23;;;;;;;31.90;10.40;;;;;;;-1.06;72.17;100286.42;106096;1274;112803;-73
2022/01/19 04:27:51;;;;;;;31.80;10.00;;;;;;;-1.02;72.19;100278.23;106244;1272;99332;-67
2022/01/19 04:30:20;;;;;;;30.00;9.70;;;;;;;-1.01;72.27;100274.20;106236;1272;105467;-73
2022/01/19 04:35:30;;;;;;;29.80;10.30;;;;;;;-0.99;72.25;100273.32;106147;1274;96526;-72
2022/01/19 04:38:53;;;;;;;30.30;10.60;;;;;;;-0.96;72.16;100271.39;106051;1274;112730;-73
2022/01/19 05:01:33;;;;;;;23.70;8.30;;;;;;;-0.84;72.10;100249.90;106178;1274;99222;-70
2022/01/19 05:03:21;;;;;;;31.80;11.20;;;;;;;-0.77;72.19;100237.48;106198;1274;99174;-71
2022/01/19 05:05:58;;;;;;;32.60;11.50;;;;;;;-0.77;72.19;100238.87;106192;1274;112635;-72
2022/01/19 05:13:51;;;;;;;31.60;10.90;;;;;;;-0.69;72.29;100237.42;106205;1274;99367;-71
2022/01/19 05:16:22;;;;;;;30.90;10.50;;;;;;;-0.67;72.27;100233.40;106236;1274;99224;-72
2022/01/19 05:18:51;;;;;;;30.70;10.20;;;;;;;-0.64;72.33;100227.45;106212;1273;112841;-72
2022/01/19 05:21:19;;;;;;;27.00;10.00;;;;;;;-0.61;72.21;100227.95;106196;1274;97255;-74
2022/01/19 05:23:47;;;;;;;29.70;9.20;;;;;;;-0.59;72.23;100224.09;106212;1274;107884;-71
2022/01/19 05:26:16;;;;;;;26.70;9.90;;;;;;;-0.58;72.36;100219.73;106254;1273;99407;-70
2022/01/19 05:28:44;;;;;;;28.70;11.30;;;;;;;-0.55;72.34;100221.28;106284;1274;99193;-72
2022/01/19 05:31:13;;;;;;;28.60;10.30;;;;;;;-0.53;72.22;100221.79;106208;1274;112856;-70
2022/01/19 05:33:42;;;;;;;28.60;9.70;;;;;;;-0.52;72.23;100221.61;106281;1274;96715;-73
2022/01/19 05:36:09;;;;;;;31.10;10.70;;;;;;;-0.51;72.26;100218.81;106241;1274;107722;-74
2022/01/19 05:38:38;;;;;;;28.30;10.60;;;;;;;-0.51;72.21;100217.77;106225;1274;99285;-72
2022/01/19 05:41:07;;;;;;;29.20;10.10;;;;;;;-0.51;72.14;100216.54;106200;1274;99330;-73
2022/01/19 05:43:35;;;;;;;32.70;9.80;;;;;;;-0.50;72.16;100213.23;106202;1273;112632;-74
2022/01/19 05:46:03;;;;;;;28.10;11.20;;;;;;;-0.47;72.26;100206.23;106236;1274;96614;-74
2022/01/19 05:48:31;;;;;;;28.50;9.70;;;;;;;-0.45;72.28;100200.11;106205;1274;106242;-72
2022/01/19 05:50:59;;;;;;;28.20;10.60;;;;;;;-0.42;72.33;100199.05;106216;1274;99449;-72
2022/01/19 05:53:26;;;;;;;34.30;9.80;;;;;;;-0.41;72.17;100198.34;106220;1274;99214;-74
2022/01/19 05:55:54;;;;;;;34.60;11.60;;;;;;;-0.40;72.09;100193.27;106193;1273;112797;-70
2022/01/19 05:58:22;;;;;;;35.60;14.10;;;;;;;-0.38;72.16;100191.50;106182;1272;99326;-71
2022/01/19 06:00:50;;;;;;;29.30;10.20;;;;;;;-0.38;72.03;100188.19;106082;1274;107733;-74
2022/01/19 06:03:18;;;;;;;28.20;9.80;;;;;;;-0.39;72.12;100184.36;106100;1274;99297;-73
2022/01/19 06:05:46;;;;;;;34.60;11.70;;;;;;;-0.39;72.13;100182.61;106138;1274;99945;-72
2022/01/19 06:08:39;;;;;;;35.00;10.80;;;;;;;-0.37;72.25;100192.02;106107;1274;112809;-72
2022/01/19 06:11:07;;;;;;;31.20;9.20;;;;;;;-0.36;72.10;100194.96;105994;1274;99395;-75
2022/01/19 06:13:35;;;;;;;32.70;11.50;;;;;;;-0.36;72.18;100196.19;106061;1274;107767;-73
2022/01/19 06:16:04;;;;;;;31.90;11.70;;;;;;;-0.34;72.25;100195.13;105944;1274;99172;-73
2022/01/19 06:18:34;;;;;;;30.90;10.60;;;;;;;-0.31;72.13;100193.35;106072;1273;99345;-73
2022/01/19 06:21:02;;;;;;;34.50;12.00;;;;;;;-0.32;72.21;100183.61;106116;1273;112776;-74
2022/01/19 06:23:34;;;;;;;31.30;11.40;;;;;;;-0.28;72.12;100181.66;106144;1272;99345;-75
2022/01/19 06:26:06;;;;;;;37.60;13.00;;;;;;;-0.28;71.91;100178.86;106116;1274;107835;-74
2022/01/19 06:28:34;;;;;;;30.00;10.80;;;;;;;-0.29;71.96;100179.05;106166;1272;96671;-74
2022/01/19 06:31:01;;;;;;;31.00;11.70;;;;;;;-0.29;71.91;100173.98;106146;1274;99180;-73
2022/01/19 06:33:31;;;;;;;29.10;10.90;;;;;;;-0.28;71.93;100174.15;106215;1274;112840;-73
2022/01/19 06:35:59;;;;;;;28.70;10.00;;;;;;;-0.29;71.77;100165.61;106078;1274;99288;-74
2022/01/19 06:38:27;;;;;;;34.90;11.60;;;;;;;-0.31;71.72;100164.59;106098;1272;108231;-73
2022/01/19 06:40:55;;;;;;;30.10;10.10;;;;;;;-0.32;71.86;100165.64;106123;1274;96695;-73
2022/01/19 06:43:24;;;;;;;27.30;9.30;;;;;;;-0.29;71.96;100172.77;106148;1274;99342;-73
2022/01/19 06:45:54;;;;;;;29.20;10.20;;;;;;;-0.28;71.81;100171.54;106196;1274;112833;-74
2022/01/19 06:48:31;;;;;;;26.30;8.50;;;;;;;-0.26;71.73;100170.64;106071;1274;99075;-76
2022/01/19 06:50:59;;;;;;;32.90;11.50;;;;;;;-0.25;71.68;100170.64;106060;1274;108534;-74
2022/01/19 06:53:27;;;;;;;31.50;10.40;;;;;;;-0.26;71.79;100168.38;106128;1273;99210;-70
2022/01/19 06:55:57;;;;;;;30.90;10.30;;;;;;;-0.25;71.78;100165.41;106120;1274;99276;-72
2022/01/19 06:58:28;;;;;;;31.50;11.00;;;;;;;-0.25;71.87;100166.27;106181;1271;111573;-74
2022/01/19 07:00:57;;;;;;;28.60;10.30;;;;;;;-0.22;71.83;100164.52;106072;1274;99198;-73
2022/01/19 07:03:26;;;;;;;26.70;9.90;;;;;;;-0.21;71.75;100163.61;106078;1274;107801;-73
2022/01/19 07:05:54;;;;;;;33.60;10.30;;;;;;;-0.21;71.75;100162.57;106099;1273;99456;-75
2022/01/19 07:08:22;;;;;;;28.10;10.40;;;;;;;-0.21;71.57;100162.23;106122;1274;97636;-76
2022/01/19 07:10:50;;;;;;;30.00;11.10;;;;;;;-0.19;71.80;100159.40;106036;1271;112816;-73
2022/01/19 07:13:18;;;;;;;26.70;10.40;;;;;;;-0.18;71.71;100162.17;105992;1274;97648;-74
2022/01/19 07:15:48;;;;;;;31.90;10.20;;;;;;;-0.19;71.57;100162.54;106058;1274;107720;-73
2022/01/19 07:18:16;;;;;;;28.10;9.90;;;;;;;-0.19;71.53;100154.86;106023;1274;99216;-72
2022/01/19 07:20:44;;;;;;;29.20;11.40;;;;;;;-0.19;71.70;100152.25;106080;1274;99550;-73
2022/01/19 07:23:12;;;;;;;23.10;9.50;;;;;;;-0.18;71.77;100152.23;105981;1273;112040;-73
2022/01/19 07:25:42;;;;;;;26.50;10.40;;;;;;;-0.15;71.66;100152.21;106022;1274;99185;-75
2022/01/19 07:28:11;;;;;;;30.50;12.10;;;;;;;-0.14;71.59;100146.80;106046;1274;105691;-74
2022/01/19 07:30:39;;;;;;;29.80;11.40;;;;;;;-0.15;71.54;100141.75;106132;1274;99173;-74
2022/01/19 07:33:07;;;;;;;51.10;13.40;;;;;;;-0.13;71.61;100139.82;106175;1274;99339;-72
2022/01/19 07:35:35;;;;;;;28.10;11.30;;;;;;;-0.11;71.53;100135.09;106005;1274;112718;-71
2022/01/19 07:38:03;;;;;;;32.40;10.70;;;;;;;-0.10;71.75;100131.41;105981;1274;99234;-71
2022/01/19 07:40:37;;;;;;;27.20;10.00;;;;;;;-0.07;71.61;100131.04;105981;1273;107876;-73
2022/01/19 07:43:07;;;;;;;25.30;10.00;;;;;;;-0.05;71.57;100124.39;106062;1274;99325;-71
2022/01/19 07:45:35;;;;;;;27.20;9.40;;;;;;;-0.03;71.63;100117.02;106037;1274;99274;-77
2022/01/19 07:48:05;;;;;;;25.40;9.60;;;;;;;-0.01;71.60;100112.82;106189;1274;112753;-79
2022/01/19 07:50:38;;;;;;;27.10;10.70;;;;;;;0.01;71.65;100118.20;106151;1274;99336;-77
2022/01/19 07:53:07;;;;;;;32.20;12.90;;;;;;;0.01;71.42;100113.84;106202;1274;107729;-75
2022/01/19 07:55:35;;;;;;;28.80;10.90;;;;;;;0.01;71.72;100108.45;106131;1274;99326;-76
2022/01/19 07:58:04;;;;;;;29.60;11.00;;;;;;;0.01;71.46;100107.38;106145;1273;98228;-73
2022/01/19 08:00:34;;;;;;;27.10;10.60;;;;;;;0.02;71.45;100105.97;106023;1274;112626;-72
2022/01/19 08:03:03;;;;;;;30.20;10.70;;;;;;;0.04;71.62;100103.52;105964;1274;96621;-73
2022/01/19 08:05:31;;;;;;;34.70;12.10;;;;;;;0.05;71.43;100103.31;106053;1274;107708;-74
2022/01/19 08:08:01;;;;;;;31.90;11.60;;;;;;;0.08;71.53;100098.92;106073;1274;99425;-72
2022/01/19 08:10:32;;;;;;;33.70;13.00;;;;;;;0.10;71.49;100101.70;106067;1274;99236;-72
2022/01/19 08:13:03;;;;;;;31.80;12.60;;;;;;;0.13;71.62;100102.88;106086;1273;112909;-73
2022/01/19 08:15:31;;;;;;;31.40;11.90;;;;;;;0.14;71.57;100106.36;106087;1274;99292;-74
2022/01/19 08:17:59;;;;;;;30.30;11.50;;;;;;;0.14;71.53;100097.98;106038;1274;107749;-73
2022/01/19 08:20:28;;;;;;;26.30;10.40;;;;;;;0.16;71.46;100094.48;106083;1274;99227;-74
2022/01/19 08:22:56;;;;;;;25.00;10.70;;;;;;;0.17;71.44;100090.10;106133;1274;99396;-74
2022/01/19 08:25:24;;;;;;;29.30;10.60;;;;;;;0.18;71.43;100087.12;106048;1274;112777;-73
2022/01/19 08:27:52;;;;;;;26.10;10.60;;;;;;;0.19;71.47;100084.48;106127;1274;99219;-73
2022/01/19 08:30:20;;;;;;;25.30;10.80;;;;;;;0.22;71.39;100083.20;106116;1274;107506;-75
2022/01/19 08:32:48;;;;;;;25.20;9.70;;;;;;;0.22;71.41;100078.66;106176;1274;99202;-72
2022/01/19 08:35:18;;;;;;;29.70;10.80;;;;;;;0.22;71.38;100074.14;106232;1274;99102;-71
2022/01/19 08:37:46;;;;;;;24.70;9.20;;;;;;;0.25;71.49;100068.34;106089;1273;112367;-71
2022/01/19 08:40:14;;;;;;;29.20;9.80;;;;;;;0.27;71.07;100068.31;106116;1274;99324;-72
2022/01/19 08:42:43;;;;;;;24.40;9.50;;;;;;;0.27;71.24;100061.70;106059;1274;107783;-73
2022/01/19 08:45:10;;;;;;;25.80;10.00;;;;;;;0.27;71.31;100055.05;106175;1274;99233;-68
2022/01/19 08:47:39;;;;;;;25.50;10.20;;;;;;;0.31;71.42;100049.60;106196;1273;99278;-70
2022/01/19 08:50:11;;;;;;;24.10;8.10;;;;;;;0.35;71.40;100051.11;106177;1274;112648;-69
2022/01/19 08:52:40;;;;;;;25.30;9.00;;;;;;;0.38;71.29;100048.27;106213;1274;97942;-70
2022/01/19 08:55:09;;;;;;;28.00;10.80;;;;;;;0.38;71.29;100049.14;106032;1274;107897;-69
2022/01/19 08:57:37;;;;;;;22.60;8.60;;;;;;;0.42;71.34;100040.70;106164;1274;99186;-70
2022/01/19 09:00:15;;;;;;;26.40;10.00;;;;;;;0.45;71.41;100030.36;106151;1274;99309;-70
2022/01/19 09:02:43;;;;;;;31.60;10.20;;;;;;;0.50;71.36;100022.61;106216;1274;113263;-70
2022/01/19 09:05:12;;;;;;;24.70;9.50;;;;;;;0.53;71.44;100017.85;106185;1274;99304;-70
2022/01/19 09:07:42;;;;;;;19.90;7.40;;;;;;;0.59;71.32;100011.48;106168;1274;107401;-70
2022/01/19 09:10:12;;;;;;;24.30;9.60;;;;;;;0.62;71.23;100013.67;106035;1273;99314;-69
2022/01/19 09:12:42;;;;;;;22.90;9.40;;;;;;;0.64;71.18;100013.82;106015;1272;99330;-70
2022/01/19 09:15:12;;;;;;;25.40;9.90;;;;;;;0.66;71.24;100011.87;105942;1274;112526;-70
2022/01/19 09:17:41;;;;;;;22.40;8.70;;;;;;;0.67;71.12;100009.40;106010;1275;99882;-69
2022/01/19 09:20:12;;;;;;;26.00;10.10;;;;;;;0.70;71.12;100007.27;106156;1273;108435;-71
2022/01/19 09:22:43;;;;;;;26.20;9.50;;;;;;;0.70;71.16;100006.23;106115;1274;96691;-70
2022/01/19 09:25:13;;;;;;;29.50;10.80;;;;;;;0.72;71.22;100006.70;106098;1274;99198;-69
2022/01/19 09:27:43;;;;;;;28.30;11.80;;;;;;;0.73;71.01;100007.20;106048;1274;112627;-70
2022/01/19 09:30:16;;;;;;;26.40;10.90;;;;;;;0.75;70.94;100008.23;106179;1274;99291;-69
2022/01/19 09:32:49;;;;;;;26.00;9.50;;;;;;;0.77;70.93;100002.27;105694;1274;107761;-69
2022/01/19 09:35:23;;;;;;;29.50;10.50;;;;;;;0.77;70.76;99992.65;106045;1274;99312;-68
2022/01/19 09:37:53;;;;;;;;;;;;;;;0.78;71.08;99986.17;106093;1273;99295;-70
2022/01/19 09:40:29;;;;;;;28.20;10.30;;;;;;;0.80;70.65;99983.53;106087;1274;112556;-70
2022/01/19 09:43:08;;;;;;;24.30;8.80;;;;;;;0.81;70.60;99979.86;106003;1274;99305;-71
2022/01/19 09:45:38;;;;;;;24.60;9.50;;;;;;;0.82;70.69;99977.20;106023;1274;107761;-69
2022/01/19 09:48:10;;;;;;;21.10;8.90;;;;;;;0.83;70.65;99972.11;106047;1274;99247;-69
2022/01/19 09:50:38;;;;;;;23.70;9.10;;;;;;;0.82;70.53;99970.58;105954;1274;99269;-69
2022/01/19 09:53:10;;;;;;;26.60;8.90;;;;;;;0.84;70.69;99966.15;106127;1273;112867;-70
2022/01/19 09:55:44;;;;;;;32.10;9.80;;;;;;;0.88;70.66;99959.09;106126;1274;97014;-69
2022/01/19 09:58:13;;;;;;;20.80;7.80;;;;;;;0.92;70.65;99957.30;106066;1274;107962;-68
2022/01/19 10:00:46;;;;;;;26.70;8.80;;;;;;;0.95;70.54;99953.57;106192;1274;99275;-65
2022/01/19 10:03:21;;;;;;;23.90;8.10;;;;;;;0.95;70.35;99946.94;106165;1274;99223;-69
2022/01/19 10:05:52;;;;;;;26.00;8.20;;;;;;;0.97;70.29;99938.17;106006;1275;113912;-70
2022/01/19 10:08:32;;;;;;;25.50;9.10;;;;;;;1.02;70.47;99927.40;106045;1273;97753;-70
2022/01/19 10:17:03;;;;;;;21.10;7.10;;;;;;;1.22;70.19;99926.16;106084;1273;99280;-70
2022/01/19 10:19:37;;;;;;;22.40;7.20;;;;;;;1.24;70.17;99924.52;106034;1273;113362;-70
2022/01/19 10:22:07;;;;;;;22.60;7.30;;;;;;;1.26;70.38;99919.58;106106;1274;97683;-69
2022/01/19 10:24:39;;;;;;;24.20;8.00;;;;;;;1.30;70.32;99915.66;106221;1274;108673;-70
2022/01/19 10:27:25;;;;;;;23.50;8.60;;;;;;;1.33;70.32;99910.00;106178;1274;99242;-70
2022/01/19 10:30:04;;;;;;;21.90;8.20;;;;;;;1.40;70.34;99895.00;106229;1274;96585;-70
2022/01/19 10:32:34;;;;;;;17.40;7.90;;;;;;;1.47;70.32;99890.11;106134;1274;113268;-69
2022/01/19 10:35:20;;;;;;;22.00;8.00;;;;;;;1.57;70.08;99888.86;106085;1274;99327;-69
2022/01/19 10:38:07;;;;;;;21.40;7.80;;;;;;;1.68;70.16;99885.28;106045;1274;107806;-70
2022/01/19 10:40:41;;;;;;;22.50;8.10;;;;;;;1.84;70.28;99878.80;106050;1274;99301;-69
2022/01/19 10:43:31;;;;;;;21.60;7.10;;;;;;;2.03;70.31;99872.73;106141;1274;99314;-69
2022/01/19 10:46:24;;;;;;;25.50;8.70;;;;;;;2.19;70.40;99865.52;106207;1273;113267;-69
2022/01/19 10:49:06;;;;;;;25.60;9.30;;;;;;;2.28;70.30;99864.95;106120;1274;99361;-69
2022/01/19 10:51:45;;;;;;;22.10;7.50;;;;;;;2.29;70.17;99860.89;106109;1274;107891;-69
2022/01/19 10:54:14;;;;;;;23.50;7.70;;;;;;;2.31;70.40;99860.13;106010;1274;99192;-68
2022/01/19 10:56:54;;;;;;;23.30;8.80;;;;;;;2.44;70.21;99860.16;105993;1274;99289;-68
2022/01/19 10:59:30;;;;;;;23.30;8.30;;;;;;;2.59;70.36;99855.56;106109;1274;112739;-69
2022/01/19 11:02:05;;;;;;;23.10;8.50;;;;;;;2.83;70.44;99850.67;106038;1274;99176;-71
2022/01/19 11:04:35;;;;;;;25.10;8.40;;;;;;;3.13;70.35;99844.77;106064;1272;107631;-70
2022/01/19 11:07:11;;;;;;;21.90;8.10;;;;;;;3.33;69.97;99836.80;106089;1274;99375;-66
2022/01/19 11:09:46;;;;;;;24.30;7.80;;;;;;;3.48;69.66;99829.50;106111;1274;96625;-70
2022/01/19 11:12:19;;;;;;;20.50;7.70;;;;;;;3.58;69.79;99820.61;105740;1274;112731;-71
2022/01/19 11:14:47;;;;;;;25.60;8.60;;;;;;;3.66;69.65;99813.84;105883;1274;96580;-71
2022/01/19 11:17:38;;;;;;;28.40;9.50;;;;;;;3.78;69.67;99806.46;105975;1274;108172;-70
2022/01/19 11:20:28;;;;;;;29.20;11.50;;;;;;;3.83;69.83;99797.52;106045;1273;99319;-68
2022/01/19 11:23:07;;;;;;;27.70;11.50;;;;;;;4.00;69.81;99795.56;106064;1274;99213;-67
2022/01/19 11:25:51;;;;;;;31.00;11.70;;;;;;;4.12;69.36;99794.45;106158;1274;113636;-68
2022/01/19 11:28:51;;;;;;;26.90;10.20;;;;;;;4.11;68.89;99789.58;106120;1274;99314;-68
2022/01/19 11:31:22;;;;;;;24.90;9.80;;;;;;;4.10;69.42;99782.73;105856;1274;108905;-71
2022/01/19 11:33:58;;;;;;;29.80;10.70;;;;;;;4.13;69.14;99781.05;105970;1274;99217;-69
2022/01/19 11:36:31;;;;;;;32.30;11.40;;;;;;;4.20;69.14;99776.64;105959;1273;99211;-70
2022/01/19 11:39:20;;;;;;;29.30;11.20;;;;;;;4.24;68.73;99774.04;105961;1274;113425;-69
2022/01/19 11:41:59;;;;;;;30.40;12.90;;;;;;;4.26;68.71;99770.79;105985;1274;97890;-69
2022/01/19 11:44:33;;;;;;;31.80;11.70;;;;;;;4.29;68.89;99762.77;105904;1274;108573;-70
2022/01/19 11:47:21;;;;;;;27.90;10.40;;;;;;;4.34;68.86;99768.75;105961;1273;99274;-71
2022/01/19 11:50:02;;;;;;;27.30;11.10;;;;;;;4.40;68.63;99763.64;105988;1274;99256;-71
2022/01/19 11:52:40;;;;;;;27.40;10.60;;;;;;;4.45;68.34;99756.94;106012;1273;113432;-70
2022/01/19 11:55:29;;;;;;;29.00;11.20;;;;;;;4.49;68.32;99754.52;106093;1274;97169;-70
2022/01/19 11:58:24;;;;;;;31.40;11.90;;;;;;;4.62;68.40;99744.40;105970;1274;109197;-73
2022/01/19 12:00:56;;;;;;;28.60;11.70;;;;;;;4.76;68.52;99735.94;106014;1274;99226;-69
2022/01/19 12:03:41;;;;;;;26.70;9.90;;;;;;;4.79;68.19;99726.54;106014;1274;99188;-70
2022/01/19 12:06:36;;;;;;;27.40;10.90;;;;;;;4.81;68.15;99721.01;105973;1274;113459;-69
2022/01/19 12:09:09;;;;;;;28.60;10.20;;;;;;;4.82;67.99;99716.92;106077;1274;99128;-69
2022/01/19 12:11:50;;;;;;;27.60;9.40;;;;;;;4.81;67.86;99716.26;106035;1274;108060;-70
2022/01/19 12:14:35;;;;;;;26.10;9.60;;;;;;;4.81;67.80;99709.42;106114;1274;99317;-69
2022/01/19 12:17:08;;;;;;;27.50;10.70;;;;;;;4.77;67.68;99705.14;105969;1274;98546;-70
2022/01/19 12:19:41;;;;;;;26.10;9.70;;;;;;;4.74;67.73;99700.55;106068;1273;113484;-70
2022/01/19 12:22:20;;;;;;;29.80;11.90;;;;;;;4.60;66.99;99692.09;106120;1274;99930;-71
2022/01/19 12:25:09;;;;;;;32.10;12.60;;;;;;;4.43;67.08;99689.05;106087;1273;107766;-70
2022/01/19 12:27:47;;;;;;;31.60;13.30;;;;;;;4.34;67.02;99691.85;105988;1274;98133;-69
2022/01/19 12:30:22;;;;;;;30.50;12.20;;;;;;;4.27;67.21;99688.24;106071;1274;99239;-71
2022/01/19 12:32:54;;;;;;;31.30;11.60;;;;;;;4.26;67.19;99683.02;106125;1274;112729;-65
2022/01/19 12:35:37;;;;;;;27.50;12.20;;;;;;;4.26;66.96;99679.86;106030;1274;96715;-70
2022/01/19 12:38:18;;;;;;;;;;;;;;;4.25;67.02;99678.82;106050;1274;107834;-69
2022/01/19 12:40:55;;;;;;;29.30;11.40;;;;;;;4.22;66.54;99670.52;106125;1274;99192;-65
2022/01/19 12:43:33;;;;;;;32.70;12.00;;;;;;;4.23;66.59;99662.39;106171;1274;99252;-70
2022/01/19 12:46:08;;;;;;;29.50;10.80;;;;;;;4.27;66.57;99662.62;106043;1274;112739;-68
2022/01/19 12:48:47;;;;;;;27.10;11.10;;;;;;;4.31;66.58;99658.39;105986;1274;99205;-69